createdAt,value
2023-04-21T00:00:16.939Z,101564.26
2023-04-21T00:05:42.359Z,101559.86
2023-04-21T00:11:04.762Z,101562.70
2023-04-21T00:16:27.067Z,101555.91
2023-04-21T00:21:49.382Z,101564.32
2023-04-21T00:27:12.517Z,101544.41
2023-04-21T00:32:34.911Z,101547.34
2023-04-21T00:37:57.270Z,101551.33
2023-04-21T00:43:20.095Z,101547.92
2023-04-21T00:48:42.498Z,101550.58
2023-04-21T00:54:06.357Z,101552.75
2023-04-21T00:59:28.821Z,101556.81
2023-04-21T01:04:51.453Z,101557.32
2023-04-21T01:10:14.750Z,101553.71
2023-04-21T01:15:38.244Z,101542.59
2023-04-21T01:21:01.462Z,101544.75
2023-04-21T01:26:24.873Z,101558.38
2023-04-21T01:31:48.493Z,101557.74
2023-04-21T01:37:10.847Z,101556.28
2023-04-21T01:42:35.572Z,101551.17
2023-04-21T01:47:57.893Z,101554.03
2023-04-21T01:53:20.917Z,101549.86
2023-04-21T01:58:43.180Z,101551.78
2023-04-21T02:04:06.090Z,101551.06
2023-04-21T02:09:29.132Z,101550.98
2023-04-21T02:14:52.894Z,101551.59
2023-04-21T02:20:16.199Z,101552.03
2023-04-21T02:25:38.553Z,101553.19
2023-04-21T02:31:00.827Z,101546.45
2023-04-21T02:36:23.494Z,101551.64
2023-04-21T02:41:46.268Z,101555.47
2023-04-21T02:47:09.356Z,101545.30
2023-04-21T02:52:31.844Z,101551.03
2023-04-21T02:57:54.102Z,101540.71
2023-04-21T03:03:17.065Z,101545.36
2023-04-21T03:08:39.653Z,101536.50
2023-04-21T03:14:01.885Z,101541.03
2023-04-21T03:19:25.056Z,101534.08
2023-04-21T03:24:47.679Z,101541.41
2023-04-21T03:30:09.987Z,101541.59
2023-04-21T03:35:32.320Z,101532.86
2023-04-21T03:40:54.818Z,101535.60
2023-04-21T03:46:27.054Z,101537.47
2023-04-21T03:51:49.418Z,101533.11
2023-04-21T03:57:11.657Z,101535.73
2023-04-21T04:02:36.284Z,101530.41
2023-04-21T04:07:58.986Z,101533.97
2023-04-21T04:13:23.105Z,101530.34
2023-04-21T04:18:45.942Z,101534.28
2023-04-21T04:24:11.901Z,101533.97
2023-04-21T04:29:35.403Z,101537.84
2023-04-21T04:34:59.221Z,101544.40
2023-04-21T04:40:23.469Z,101547.39
2023-04-21T04:45:46.755Z,101539.84
2023-04-21T04:51:09.140Z,101537.42
2023-04-21T04:56:33.954Z,101541.63
2023-04-21T05:01:58.348Z,101542.11
2023-04-21T05:07:23.675Z,101536.28
2023-04-21T05:12:47.159Z,101539.05
2023-04-21T05:18:11.919Z,101539.33
2023-04-21T05:23:35.731Z,101540.03
2023-04-21T05:29:02.139Z,101545.73
2023-04-21T05:34:27.245Z,101541.13
2023-04-21T05:39:51.082Z,101542.80
2023-04-21T05:45:15.937Z,101550.09
2023-04-21T05:50:39.850Z,101555.45
2023-04-21T05:56:04.682Z,101552.97
2023-04-21T06:01:28.496Z,101554.03
2023-04-21T06:06:52.448Z,101547.86
2023-04-21T06:12:17.088Z,101556.89
2023-04-21T06:17:41.410Z,101549.75
2023-04-21T06:23:06.212Z,101546.41
2023-04-21T06:28:30.045Z,101541.30
2023-04-21T06:33:54.732Z,101546.63
2023-04-21T06:39:19.014Z,101547.30
2023-04-21T06:44:43.763Z,101538.67
2023-04-21T06:50:07.701Z,101548.42
2023-04-21T06:55:32.658Z,101549.49
2023-04-21T07:00:57.294Z,101543.67
2023-04-21T07:06:22.302Z,101537.73
2023-04-21T07:11:46.696Z,101547.55
2023-04-21T07:17:11.784Z,101538.91
2023-04-21T07:22:37.677Z,101540.33
2023-04-21T07:28:03.387Z,101543.92
2023-04-21T07:33:28.966Z,101541.53
2023-04-21T07:38:53.382Z,101532.98
2023-04-21T07:44:18.257Z,101532.32
2023-04-21T07:49:42.685Z,101526.66
2023-04-21T07:55:06.688Z,101524.20
2023-04-21T08:00:30.880Z,101516.05
2023-04-21T08:05:55.675Z,101521.08
2023-04-21T08:11:20.929Z,101514.27
2023-04-21T08:16:46.151Z,101510.60
2023-04-21T08:22:11.105Z,101508.66
2023-04-21T08:27:34.794Z,101509.25
2023-04-21T08:32:58.367Z,101505.88
2023-04-21T08:38:21.659Z,101502.36
2023-04-21T08:43:47.471Z,101499.58
2023-04-21T08:49:12.644Z,101506.58
2023-04-21T09:00:10.145Z,101489.71
2023-04-21T09:05:42.858Z,101494.14
2023-04-21T09:11:11.836Z,101491.57
2023-04-21T09:16:39.083Z,101494.09
2023-04-21T09:22:04.339Z,101481.34
2023-04-21T09:27:30.329Z,101479.70
2023-04-21T09:33:00.566Z,101482.05
2023-04-21T09:38:27.850Z,101466.35
2023-04-21T09:43:52.883Z,101467.36
2023-04-21T09:49:18.355Z,101465.27
2023-04-21T09:54:46.773Z,101470.81
2023-04-21T10:00:14.012Z,101463.48
2023-04-21T10:05:41.907Z,101451.69
2023-04-21T10:11:07.162Z,101451.27
2023-04-21T10:16:30.834Z,101454.21
2023-04-21T10:21:58.841Z,101447.52
2023-04-21T10:27:40.097Z,101442.93
2023-04-21T10:33:12.753Z,101443.57
2023-04-21T10:38:49.151Z,101426.28
2023-04-21T10:44:19.271Z,101431.78
2023-04-21T10:49:47.489Z,101436.47
2023-04-21T10:55:21.155Z,101430.03
2023-04-21T11:00:45.134Z,101418.46
2023-04-21T11:06:08.171Z,101416.81
2023-04-21T11:11:36.791Z,101416.05
2023-04-21T11:17:01.519Z,101400.88
2023-04-21T11:22:25.488Z,101390.45
2023-04-21T11:27:48.446Z,101393.66
2023-04-21T11:33:14.286Z,101388.14
2023-04-21T11:38:39.450Z,101379.95
2023-04-21T11:44:04.452Z,101373.30
2023-04-21T11:49:31.081Z,101365.41
2023-04-21T11:54:53.512Z,101368.98
2023-04-21T12:00:22.314Z,101353.92
2023-04-21T12:05:51.251Z,101359.44
2023-04-21T12:11:15.716Z,101352.69
2023-04-21T12:16:39.306Z,101340.52
2023-04-21T12:22:08.090Z,101340.34
2023-04-21T12:27:31.408Z,101320.02
2023-04-21T12:32:57.862Z,101319.11
2023-04-21T12:38:20.786Z,101317.56
2023-04-21T12:43:43.460Z,101323.95
2023-04-21T12:49:07.807Z,101312.25
2023-04-21T12:54:31.250Z,101305.03
2023-04-21T12:59:54.838Z,101300.92
2023-04-21T13:05:17.568Z,101289.27
2023-04-21T13:10:40.957Z,101283.79
2023-04-21T13:16:04.051Z,101274.02
2023-04-21T13:21:30.783Z,101280.39
2023-04-21T13:26:57.760Z,101264.91
2023-04-21T13:32:25.639Z,101249.89
2023-04-21T13:37:50.547Z,101246.84
2023-04-21T13:43:13.370Z,101250.36
2023-04-21T13:48:37.327Z,101239.51
2023-04-21T13:54:00.867Z,101233.83
2023-04-21T13:59:24.247Z,101231.28
2023-04-21T14:04:47.393Z,101214.76
2023-04-21T14:10:10.162Z,101201.89
2023-04-21T14:15:32.513Z,101202.34
2023-04-21T14:20:54.856Z,101187.40
2023-04-21T14:26:17.849Z,101177.84
2023-04-21T14:31:41.000Z,101176.34
2023-04-21T14:37:04.104Z,101172.94
2023-04-21T14:42:26.711Z,101159.00
2023-04-21T14:47:49.954Z,101155.28
2023-04-21T14:53:12.690Z,101161.98
2023-04-21T14:58:35.271Z,101154.91
2023-04-21T15:03:59.593Z,101151.57
2023-04-21T15:09:22.219Z,101146.66
2023-04-21T15:14:45.583Z,101142.94
2023-04-21T15:20:07.922Z,101137.12
2023-04-21T15:25:30.729Z,101131.00
2023-04-21T15:30:53.130Z,101123.17
2023-04-21T15:36:15.551Z,101123.68
2023-04-21T15:41:38.625Z,101113.53
2023-04-21T15:47:01.034Z,101114.66
2023-04-21T15:52:23.928Z,101107.99
2023-04-21T15:57:47.125Z,101103.17
2023-04-21T16:03:14.771Z,101095.52
2023-04-21T16:08:37.638Z,101082.52
2023-04-21T16:14:00.441Z,101076.35
2023-04-21T16:19:23.026Z,101083.36
2023-04-21T16:24:45.584Z,101080.27
2023-04-21T16:30:08.742Z,101076.77
2023-04-21T16:35:31.145Z,101069.83
2023-04-21T16:40:53.893Z,101072.42
2023-04-21T16:46:20.532Z,101079.09
2023-04-21T16:51:44.878Z,101080.54
2023-04-21T16:57:07.458Z,101078.66
2023-04-21T17:02:30.340Z,101077.94
2023-04-21T17:07:53.570Z,101071.83
2023-04-21T17:13:16.068Z,101073.83
2023-04-21T17:18:39.003Z,101088.23
2023-04-21T17:24:01.567Z,101084.30
2023-04-21T17:29:24.246Z,101089.14
2023-04-21T17:34:47.492Z,101085.53
2023-04-21T17:40:10.703Z,101079.86
2023-04-21T17:45:33.080Z,101093.52
2023-04-21T17:50:55.445Z,101088.52
2023-04-21T17:56:19.310Z,101094.73
2023-04-21T18:01:41.741Z,101097.41
2023-04-21T18:07:04.470Z,101100.09
2023-04-21T18:12:27.096Z,101101.73
2023-04-21T18:17:49.567Z,101108.75
2023-04-21T18:23:12.147Z,101110.61
2023-04-21T18:28:34.439Z,101117.59
2023-04-21T18:33:56.886Z,101110.30
2023-04-21T18:39:19.894Z,101111.64
2023-04-21T18:44:42.506Z,101115.68
2023-04-21T18:50:04.831Z,101116.38
2023-04-21T18:55:28.005Z,101113.55
2023-04-21T19:00:50.478Z,101107.70
2023-04-21T19:06:12.954Z,101116.45
2023-04-21T19:11:35.747Z,101110.38
2023-04-21T19:16:58.078Z,101111.83
2023-04-21T19:22:20.641Z,101108.09
2023-04-21T19:27:42.993Z,101114.98
2023-04-21T19:33:06.457Z,101098.77
2023-04-21T19:38:28.985Z,101101.78
2023-04-21T19:43:52.535Z,101105.82
2023-04-21T19:49:15.488Z,101099.48
2023-04-21T19:54:38.137Z,101096.91
2023-04-21T20:00:01.594Z,101093.22
2023-04-21T20:05:25.517Z,101100.41
2023-04-21T20:10:47.962Z,101103.36
2023-04-21T20:16:10.254Z,101094.31
2023-04-21T20:21:33.626Z,101098.79
2023-04-21T20:26:59.470Z,101099.57
2023-04-21T20:32:21.978Z,101099.14
2023-04-21T20:37:45.756Z,101091.80
2023-04-21T20:43:10.330Z,101095.52
2023-04-21T20:48:32.982Z,101097.07
2023-04-21T20:53:55.277Z,101105.53
2023-04-21T20:59:17.866Z,101099.21
2023-04-21T21:04:40.237Z,101097.59
2023-04-21T21:10:06.123Z,101098.93
2023-04-21T21:15:28.765Z,101098.41
2023-04-21T21:20:51.713Z,101105.08
2023-04-21T21:26:14.139Z,101108.77
2023-04-21T21:31:36.498Z,101103.51
2023-04-21T21:36:58.943Z,101100.70
2023-04-21T21:42:23.044Z,101105.84
2023-04-21T21:47:46.449Z,101104.17
2023-04-21T21:53:08.747Z,101098.34
2023-04-21T21:58:31.107Z,101103.00
2023-04-21T22:03:54.263Z,101102.01
2023-04-21T22:09:16.642Z,101099.02
2023-04-21T22:14:40.004Z,101099.80
2023-04-21T22:20:03.861Z,101094.11
2023-04-21T22:30:58.887Z,101098.97
2023-04-21T22:36:21.841Z,101099.24
2023-04-21T22:41:45.016Z,101098.63
2023-04-21T22:47:07.808Z,101095.88
2023-04-21T22:52:30.270Z,101085.70
2023-04-21T22:57:53.118Z,101089.82
2023-04-21T23:03:16.487Z,101093.58
2023-04-21T23:08:39.142Z,101096.02
2023-04-21T23:14:01.467Z,101093.61
2023-04-21T23:19:24.812Z,101094.41
2023-04-21T23:24:47.178Z,101087.98
2023-04-21T23:30:10.059Z,101094.50
2023-04-21T23:35:32.460Z,101096.92
2023-04-21T23:40:54.977Z,101093.14
2023-04-21T23:46:17.376Z,101095.28
2023-04-21T23:51:40.212Z,101089.38
2023-04-21T23:57:02.768Z,101089.23
